Time;durP1;ratioP1;P1;durP2;ratioP2;P2;SDS_P1;SDS_P2;PMS_P1;PMS_P2;Temp;Humidity;BMP_temperature;BMP_pressure;BME280_temperature;BME280_humidity;BME280_pressure;Samples;Min_cycle;Max_cycle;Signal;HPM_P1;HPM_P2
2022/10/17 00:01:10;;;;;;;;;;;;;;;11.17;46.08;102294.38;5036476;28;19991;-81
2022/10/17 00:03:36;;;;;;;;;;;;;;;11.13;46.41;102298.28;5036979;28;19985;-81
2022/10/17 00:06:09;;;;;;;;;;;;;;;11.08;46.62;102295.13;5032192;28;19964;-80
2022/10/17 00:08:34;;;;;;;;;;;;;;;11.10;46.58;102304.78;5043900;28;20381;-82
2022/10/17 00:11:04;;;;;;;;;;;;;;;11.03;46.68;102314.31;5037393;28;19948;-83
2022/10/17 00:13:29;;;;;;;;;;;;;;;10.94;46.99;102310.53;5041436;28;20019;-82
2022/10/17 00:15:54;;;;;;;;;;;;;;;10.94;46.94;102315.06;5030472;28;20342;-82
2022/10/17 00:18:20;;;;;;;;;;;;;;;10.88;47.38;102312.84;5049979;28;20351;-81
2022/10/17 00:20:45;;;;;;;;;;;;;;;10.94;47.20;102307.00;5031539;28;20328;-82
2022/10/17 00:23:10;;;;;;;;;;;;;;;10.99;47.13;102304.78;5044273;28;20284;-81
2022/10/17 00:25:36;;;;;;;;;;;;;;;11.09;47.10;102303.03;5057303;28;20380;-82
2022/10/17 00:28:01;;;;;;;;;;;;;;;11.16;46.85;102298.88;5077204;28;20326;-81
2022/10/17 00:30:27;;;;;;;;;;;;;;;11.23;46.24;102293.00;5039293;28;19971;-81
2022/10/17 00:32:52;;;;;;;;;;;;;;;11.23;46.03;102293.84;5038806;28;19931;-84
2022/10/17 00:35:18;;;;;;;;;;;;;;;11.25;46.03;102285.66;5063958;28;19936;-81
2022/10/17 00:37:43;;;;;;;;;;;;;;;11.27;45.99;102287.25;5060702;28;20388;-81
2022/10/17 00:40:09;;;;;;;;;;;;;;;11.28;45.92;102282.69;5043007;28;20351;-82
2022/10/17 00:42:36;;;;;;;;;;;;;;;11.40;45.78;102290.66;5043038;28;19932;-81
2022/10/17 00:45:04;;;;;;;;;;;;;;;11.43;45.90;102284.16;5065908;28;20360;-83
2022/10/17 00:47:29;;;;;;;;;;;;;;;11.43;46.05;102284.16;5060376;28;20316;-80
2022/10/17 00:49:55;;;;;;;;;;;;;;;11.46;45.91;102283.88;5052026;28;19992;-82
2022/10/17 00:52:20;;;;;;;;;;;;;;;11.48;45.87;102281.06;5040279;28;20400;-80
2022/10/17 00:54:50;;;;;;;;;;;;;;;11.48;45.96;102279.22;5064784;28;19921;-82
2022/10/17 00:57:16;;;;;;;;;;;;;;;11.47;45.98;102273.97;5041946;28;19928;-81
2022/10/17 00:59:41;;;;;;;;;;;;;;;11.45;46.04;102278.59;5062443;28;19937;-82
2022/10/17 01:02:12;;;;;;;;;;;;;;;11.43;46.02;102280.59;5043822;28;20007;-83
2022/10/17 01:04:38;;;;;;;;;;;;;;;11.39;46.13;102283.53;5069807;28;20346;-82
2022/10/17 01:07:03;;;;;;;;;;;;;;;11.31;46.22;102285.16;5035533;28;19928;-82
2022/10/17 01:09:29;;;;;;;;;;;;;;;11.35;46.24;102286.59;5049978;28;19920;-82
2022/10/17 01:12:13;;;;;;;;;;;;;;;11.37;46.27;102284.63;5046182;28;19922;-83
2022/10/17 01:14:57;;;;;;;;;;;;;;;11.35;46.38;102286.59;5058292;28;20031;-81
2022/10/17 01:17:32;;;;;;;;;;;;;;;11.41;45.99;102280.72;5065001;28;20031;-83
2022/10/17 01:20:17;;;;;;;;;;;;;;;11.41;45.70;102275.34;5045409;28;19924;-82
2022/10/17 01:22:45;;;;;;;;;;;;;;;11.41;45.79;102283.41;5058101;28;19929;-83
2022/10/17 01:25:23;;;;;;;;;;;;;;;11.41;45.79;102278.03;5036867;28;20438;-82
2022/10/17 01:27:48;;;;;;;;;;;;;;;11.46;45.40;102278.50;5067473;28;20016;-82
2022/10/17 01:30:48;;;;;;;;;;;;;;;11.43;45.85;102277.91;5069436;28;19924;-84
2022/10/17 01:33:20;;;;;;;;;;;;;;;11.46;45.60;102278.50;4988745;28;19960;-81
2022/10/17 01:35:53;;;;;;;;;;;;;;;11.43;45.54;102281.44;5047162;28;20010;-81
2022/10/17 01:38:44;;;;;;;;;;;;;;;11.46;45.41;102277.66;5062084;28;19921;-81
2022/10/17 01:41:20;;;;;;;;;;;;;;;11.50;45.44;102289.88;5054588;28;19920;-80
2022/10/17 01:43:53;;;;;;;;;;;;;;;11.30;45.72;102286.13;5054560;28;19940;-81
2022/10/17 01:46:22;;;;;;;;;;;;;;;11.32;45.59;102295.78;5047326;28;19925;-82
2022/10/17 01:48:49;;;;;;;;;;;;;;;11.25;45.80;102297.28;5042737;28;20074;-80
2022/10/17 01:51:19;;;;;;;;;;;;;;;11.31;45.68;102293.25;5063753;28;19925;-80
2022/10/17 01:53:47;;;;;;;;;;;;;;;11.26;45.74;102300.81;5042403;28;19928;-81
2022/10/17 01:56:13;;;;;;;;;;;;;;;11.25;45.73;102301.81;5029295;28;19931;-82
2022/10/17 01:58:41;;;;;;;;;;;;;;;11.15;45.98;102291.78;5059527;28;19920;-81
2022/10/17 02:01:06;;;;;;;;;;;;;;;11.08;46.12;102292.44;5044547;28;20384;-80
2022/10/17 02:03:33;;;;;;;;;;;;;;;11.00;46.31;102298.41;5049143;28;19990;-84
2022/10/17 02:05:58;;;;;;;;;;;;;;;10.97;46.41;102304.03;5065977;28;19925;-81
2022/10/17 02:08:24;;;;;;;;;;;;;;;11.02;46.48;102296.44;5051094;28;19924;-82
2022/10/17 02:11:00;;;;;;;;;;;;;;;11.01;46.51;102297.44;5058110;28;19924;-83
2022/10/17 02:13:44;;;;;;;;;;;;;;;10.98;46.62;102295.00;5069335;28;19916;-82
2022/10/17 02:16:19;;;;;;;;;;;;;;;11.05;46.48;102308.78;5045950;28;19924;-81
2022/10/17 02:18:46;;;;;;;;;;;;;;;11.03;46.31;102308.94;5030363;28;19959;-81
2022/10/17 02:21:12;;;;;;;;;;;;;;;10.91;46.55;102309.91;5042196;28;19944;-81
2022/10/17 02:24:03;;;;;;;;;;;;;;;10.89;46.72;102307.34;5061226;28;20488;-82
2022/10/17 02:26:52;;;;;;;;;;;;;;;10.88;46.63;102316.38;5052922;28;19924;-83
2022/10/17 02:29:18;;;;;;;;;;;;;;;10.88;46.50;102320.91;5050474;28;20398;-81
2022/10/17 02:31:52;;;;;;;;;;;;;;;10.89;46.46;102323.50;5040350;28;19936;-81
2022/10/17 02:34:25;;;;;;;;;;;;;;;10.89;46.57;102317.28;5062446;28;19924;-82
2022/10/17 02:36:54;;;;;;;;;;;;;;;10.84;46.54;102328.41;5037687;28;19927;-83
2022/10/17 02:39:21;;;;;;;;;;;;;;;10.90;46.42;102324.34;5039051;28;19921;-81
2022/10/17 02:41:48;;;;;;;;;;;;;;;10.88;46.44;102320.91;5042321;28;20312;-81
2022/10/17 02:44:13;;;;;;;;;;;;;;;10.85;46.53;102331.94;5052880;28;20396;-83
2022/10/17 02:46:39;;;;;;;;;;;;;;;10.85;46.59;102324.72;5042972;28;19927;-83
2022/10/17 02:49:06;;;;;;;;;;;;;;;10.92;46.47;102330.47;5042286;28;20281;-82
2022/10/17 02:51:34;;;;;;;;;;;;;;;10.98;46.33;102335.38;5045150;28;19994;-82
2022/10/17 02:54:11;;;;;;;;;;;;;;;10.99;46.23;102334.38;5043020;28;20408;-82
2022/10/17 02:56:39;;;;;;;;;;;;;;;10.95;46.42;102332.91;5059598;28;19942;-82
2022/10/17 02:59:04;;;;;;;;;;;;;;;10.92;46.71;102334.00;5045715;28;19916;-81
2022/10/17 03:01:29;;;;;;;;;;;;;;;10.93;46.81;102341.13;5037409;28;19924;-84
2022/10/17 03:04:08;;;;;;;;;;;;;;;11.01;46.80;102336.97;5039503;28;19920;-83
2022/10/17 03:06:34;;;;;;;;;;;;;;;10.99;47.07;102345.16;5052321;28;19947;-82
2022/10/17 03:08:59;;;;;;;;;;;;;;;11.01;47.07;102343.19;5060681;28;20016;-81
2022/10/17 03:11:24;;;;;;;;;;;;;;;11.09;47.16;102346.13;5060137;28;19920;-82
2022/10/17 03:13:50;;;;;;;;;;;;;;;11.13;46.98;102346.75;5040538;28;19924;-81
2022/10/17 03:16:15;;;;;;;;;;;;;;;11.13;46.86;102335.97;5055739;28;20086;-81
2022/10/17 03:18:40;;;;;;;;;;;;;;;11.14;46.90;102351.13;5057275;28;19921;-81
2022/10/17 03:21:06;;;;;;;;;;;;;;;11.18;46.73;102345.38;5052219;28;19925;-82
2022/10/17 03:23:31;;;;;;;;;;;;;;;11.18;46.77;102344.53;5065382;28;19916;-81
2022/10/17 03:25:58;;;;;;;;;;;;;;;11.26;46.99;102346.59;5040746;28;19931;-82
2022/10/17 03:28:23;;;;;;;;;;;;;;;11.31;47.08;102350.63;5062501;28;19920;-83
2022/10/17 03:30:48;;;;;;;;;;;;;;;11.37;47.35;102343.88;5043778;28;19939;-82
2022/10/17 03:33:14;;;;;;;;;;;;;;;11.41;47.47;102343.50;5054105;28;19920;-80
2022/10/17 03:35:39;;;;;;;;;;;;;;;11.50;47.35;102338.38;5053889;28;19924;-84
2022/10/17 03:38:08;;;;;;;;;;;;;;;11.50;47.94;102339.22;5040232;28;20480;-82
2022/10/17 03:40:34;;;;;;;;;;;;;;;11.58;47.74;102333.19;5052598;28;20374;-83
2022/10/17 03:42:59;;;;;;;;;;;;;;;11.63;47.74;102322.88;5044520;28;19970;-82
2022/10/17 03:45:25;;;;;;;;;;;;;;;11.63;48.03;102339.03;5053421;28;20833;-80
2022/10/17 03:47:50;;;;;;;;;;;;;;;11.70;47.96;102328.63;5039956;28;20328;-80
2022/10/17 03:50:15;;;;;;;;;;;;;;;11.71;47.96;102325.81;5037826;28;19927;-81
2022/10/17 03:52:41;;;;;;;;;;;;;;;11.70;48.32;102323.22;5065252;28;20007;-81
2022/10/17 03:55:06;;;;;;;;;;;;;;;11.73;48.12;102326.53;5045277;28;19939;-83
2022/10/17 03:57:33;;;;;;;;;;;;;;;11.75;48.36;102324.56;5061370;28;19956;-80
2022/10/17 03:59:59;;;;;;;;;;;;;;;11.82;48.65;102332.97;5061274;28;19974;-82
2022/10/17 04:02:24;;;;;;;;;;;;;;;11.84;49.37;102331.00;5039866;28;19920;-83
2022/10/17 04:04:50;;;;;;;;;;;;;;;11.83;49.46;102327.47;5034066;28;20360;-82
2022/10/17 04:07:15;;;;;;;;;;;;;;;11.84;49.44;102331.00;5061780;28;19925;-82
2022/10/17 04:09:40;;;;;;;;;;;;;;;11.90;49.29;102337.78;5050681;28;19924;-82
2022/10/17 04:12:06;;;;;;;;;;;;;;;11.94;49.23;102340.09;5077541;28;19925;-82
2022/10/17 04:14:32;;;;;;;;;;;;;;;12.02;49.09;102331.34;5039357;28;19917;-81
2022/10/17 04:16:58;;;;;;;;;;;;;;;11.99;49.07;102350.47;5058894;28;19917;-83
2022/10/17 04:19:24;;;;;;;;;;;;;;;12.00;48.64;102353.03;5066395;28;20054;-83
2022/10/17 04:21:50;;;;;;;;;;;;;;;11.98;48.25;102355.00;5069759;28;19936;-83
2022/10/17 04:24:15;;;;;;;;;;;;;;;12.01;47.79;102354.75;5037958;28;20312;-83
2022/10/17 04:26:41;;;;;;;;;;;;;;;12.09;47.62;102362.19;5065479;28;19960;-84
2022/10/17 04:29:06;;;;;;;;;;;;;;;12.07;47.23;102366.00;5070249;28;20003;-86
2022/10/17 04:31:31;;;;;;;;;;;;;;;12.00;46.99;102362.97;5068964;28;20299;-86
2022/10/17 04:33:57;;;;;;;;;;;;;;;11.96;46.71;102362.38;5047703;28;20028;-83
2022/10/17 04:36:22;;;;;;;;;;;;;;;12.01;46.47;102370.94;5046073;28;19920;-83
2022/10/17 04:38:48;;;;;;;;;;;;;;;12.01;46.36;102381.72;5060027;28;19921;-83
2022/10/17 04:41:14;;;;;;;;;;;;;;;11.90;46.64;102389.84;5062253;28;20027;-83
2022/10/17 04:43:40;;;;;;;;;;;;;;;11.96;46.44;102388.44;5040717;28;20018;-83
2022/10/17 04:46:08;;;;;;;;;;;;;;;12.00;46.49;102389.91;5041814;28;20004;-82
2022/10/17 04:48:34;;;;;;;;;;;;;;;11.99;46.47;102382.84;5043872;28;19929;-83
2022/10/17 04:51:00;;;;;;;;;;;;;;;11.92;46.73;102398.66;5065575;28;19982;-83
2022/10/17 04:53:26;;;;;;;;;;;;;;;11.89;47.02;102398.03;5068059;28;19924;-82
2022/10/17 04:55:52;;;;;;;;;;;;;;;11.91;47.03;102396.06;5040259;28;19932;-84
2022/10/17 04:58:17;;;;;;;;;;;;;;;11.98;46.96;102406.22;5059116;28;19921;-82
2022/10/17 05:00:43;;;;;;;;;;;;;;;12.08;46.62;102398.25;5070142;28;19952;-84
2022/10/17 05:03:08;;;;;;;;;;;;;;;12.16;46.48;102405.66;5038211;28;20044;-83
2022/10/17 05:05:38;;;;;;;;;;;;;;;12.17;46.67;102410.06;5036387;28;20154;-82
2022/10/17 05:08:04;;;;;;;;;;;;;;;12.11;46.84;102416.00;5067898;28;19943;-83
2022/10/17 05:10:29;;;;;;;;;;;;;;;12.16;46.82;102417.31;5068366;28;20356;-86
2022/10/17 05:12:55;;;;;;;;;;;;;;;12.14;46.67;102421.97;5070612;28;20003;-84
2022/10/17 05:15:21;;;;;;;;;;;;;;;12.18;46.33;102419.88;5071088;28;20015;-86
2022/10/17 05:17:47;;;;;;;;;;;;;;;12.14;46.43;102421.13;5072378;28;19935;-82
2022/10/17 05:20:12;;;;;;;;;;;;;;;12.15;46.81;102425.50;5065765;28;19924;-88
2022/10/17 05:22:38;;;;;;;;;;;;;;;12.19;46.96;102435.06;5069461;28;19920;-82
2022/10/17 05:25:03;;;;;;;;;;;;;;;12.14;46.82;102442.69;5068195;28;19929;-83
2022/10/17 05:27:29;;;;;;;;;;;;;;;12.16;46.82;102438.03;5060388;28;19920;-84
2022/10/17 05:29:55;;;;;;;;;;;;;;;12.23;46.91;102440.06;5034112;28;19928;-83
2022/10/17 05:32:21;;;;;;;;;;;;;;;12.25;46.84;102435.41;5051904;28;19920;-84
2022/10/17 05:34:46;;;;;;;;;;;;;;;12.44;46.69;102450.91;5060245;28;19920;-83
2022/10/17 05:37:14;;;;;;;;;;;;;;;12.56;47.11;102446.31;5064691;28;19916;-82
2022/10/17 05:39:39;;;;;;;;;;;;;;;12.54;46.77;102453.66;5054993;28;19978;-83
2022/10/17 05:42:06;;;;;;;;;;;;;;;12.59;46.61;102453.28;5038233;28;20349;-83
2022/10/17 05:44:31;;;;;;;;;;;;;;;12.65;46.37;102453.63;5057524;28;19912;-83
2022/10/17 05:46:57;;;;;;;;;;;;;;;12.79;46.76;102457.84;5057168;28;19925;-83
2022/10/17 05:49:23;;;;;;;;;;;;;;;12.93;46.75;102459.34;5052131;28;19920;-84
2022/10/17 05:51:48;;;;;;;;;;;;;;;12.84;46.74;102466.38;5057985;28;20387;-83
2022/10/17 05:54:15;;;;;;;;;;;;;;;13.11;46.49;102467.72;5052105;28;19928;-83
2022/10/17 05:56:40;;;;;;;;;;;;;;;13.10;46.99;102477.63;5057264;28;19929;-84
2022/10/17 05:59:05;;;;;;;;;;;;;;;13.24;47.10;102478.28;5035189;28;20431;-82
2022/10/17 06:01:31;;;;;;;;;;;;;;;13.39;46.46;102487.78;5060620;28;20343;-84
2022/10/17 06:03:56;;;;;;;;;;;;;;;13.58;46.24;102487.00;5058769;28;20015;-83
2022/10/17 06:06:23;;;;;;;;;;;;;;;14.41;45.08;102484.91;5065536;28;19928;-86
2022/10/17 06:08:48;;;;;;;;;;;;;;;14.37;45.85;102486.19;5054661;28;20360;-84
2022/10/17 06:11:13;;;;;;;;;;;;;;;15.53;43.52;102478.88;5069244;28;19959;-82
2022/10/17 06:13:39;;;;;;;;;;;;;;;15.84;43.35;102482.19;5046059;28;20085;-82
2022/10/17 06:16:04;;;;;;;;;;;;;;;18.39;38.41;102495.66;5058684;28;19956;-83
2022/10/17 06:18:30;;;;;;;;;;;;;;;19.43;36.17;102485.88;5065872;28;19975;-82
2022/10/17 06:21:00;;;;;;;;;;;;;;;21.09;33.42;102480.91;5057956;28;20295;-83
2022/10/17 06:23:27;;;;;;;;;;;;;;;22.36;31.28;102486.19;5060637;28;19920;-83
2022/10/17 06:25:59;;;;;;;;;;;;;;;23.59;29.45;102468.34;5036474;28;20313;-83
2022/10/17 06:28:27;;;;;;;;;;;;;;;24.73;27.73;102486.03;5052971;28;20068;-82
2022/10/17 06:30:52;;;;;;;;;;;;;;;25.27;27.12;102490.44;5053718;28;19920;-85
2022/10/17 06:33:19;;;;;;;;;;;;;;;26.23;25.99;102485.22;5043789;28;19947;-84
2022/10/17 06:35:50;;;;;;;;;;;;;;;26.85;25.04;102483.50;5042726;28;20019;-84
2022/10/17 06:38:15;;;;;;;;;;;;;;;27.13;24.84;102487.69;5059865;28;19917;-84
2022/10/17 06:40:40;;;;;;;;;;;;;;;27.84;23.73;102485.44;5036128;28;20047;-84
2022/10/17 06:43:06;;;;;;;;;;;;;;;28.78;22.90;102497.69;5058129;28;19972;-84
2022/10/17 06:45:31;;;;;;;;;;;;;;;28.86;23.08;102498.41;5034532;28;20291;-82
2022/10/17 06:47:57;;;;;;;;;;;;;;;28.99;23.18;102492.66;5062236;28;20019;-84
2022/10/17 06:50:22;;;;;;;;;;;;;;;29.31;23.10;102497.81;5035615;28;20420;-86
2022/10/17 06:52:49;;;;;;;;;;;;;;;30.09;22.44;102508.38;5059941;28;19927;-82
2022/10/17 06:55:15;;;;;;;;;;;;;;;30.55;21.97;102508.41;5057453;28;19917;-84
2022/10/17 06:57:40;;;;;;;;;;;;;;;30.79;21.82;102511.00;5064201;28;20368;-84
2022/10/17 07:00:06;;;;;;;;;;;;;;;30.31;22.25;102509.63;5057698;28;19921;-83
2022/10/17 07:02:31;;;;;;;;;;;;;;;30.63;22.06;102507.16;5061806;28;19933;-85
2022/10/17 07:04:57;;;;;;;;;;;;;;;31.30;21.43;102509.03;5062006;28;19917;-84
2022/10/17 07:07:22;;;;;;;;;;;;;;;31.10;21.70;102509.59;5040030;28;20451;-85
2022/10/17 07:09:48;;;;;;;;;;;;;;;31.17;21.66;102513.03;5067012;28;19921;-84
2022/10/17 07:12:13;;;;;;;;;;;;;;;32.27;20.60;102506.69;5040172;28;20408;-84
2022/10/17 07:14:41;;;;;;;;;;;;;;;32.05;20.47;102504.75;5050115;28;19925;-85
2022/10/17 07:17:07;;;;;;;;;;;;;;;31.92;20.89;102507.94;5067464;28;19922;-85
2022/10/17 07:19:36;;;;;;;;;;;;;;;32.01;20.68;102517.53;5063145;28;19999;-85
2022/10/17 07:22:02;;;;;;;;;;;;;;;31.30;21.35;102517.38;5063120;28;19970;-85
2022/10/17 07:24:27;;;;;;;;;;;;;;;31.70;21.08;102517.13;5066754;28;19951;-84
2022/10/17 07:26:52;;;;;;;;;;;;;;;31.48;21.20;102519.91;5052694;28;20384;-85
2022/10/17 07:29:18;;;;;;;;;;;;;;;31.69;21.12;102518.22;5071203;28;19977;-85
2022/10/17 07:31:47;;;;;;;;;;;;;;;31.29;21.43;102526.81;5042320;28;19920;-85
2022/10/17 07:34:13;;;;;;;;;;;;;;;31.40;21.26;102522.22;5069596;28;19924;-86
2022/10/17 07:36:38;;;;;;;;;;;;;;;31.16;21.74;102525.22;5057595;28;20360;-86
2022/10/17 07:39:03;;;;;;;;;;;;;;;31.22;21.36;102518.66;5055743;28;19928;-84
2022/10/17 07:41:28;;;;;;;;;;;;;;;32.17;20.51;102513.81;5059192;28;20015;-86
2022/10/17 07:43:55;;;;;;;;;;;;;;;32.13;20.81;102515.44;5056987;28;19948;-85
2022/10/17 07:46:21;;;;;;;;;;;;;;;32.44;20.58;102510.16;5057477;28;20299;-85
2022/10/17 07:48:46;;;;;;;;;;;;;;;32.24;20.59;102510.81;5054858;28;19928;-84
2022/10/17 07:51:13;;;;;;;;;;;;;;;31.52;21.41;102509.94;5025711;28;19953;-85
2022/10/17 07:53:38;;;;;;;;;;;;;;;30.62;22.60;102500.75;5057936;28;19917;-87
2022/10/17 07:56:06;;;;;;;;;;;;;;;31.60;21.65;102510.59;5036415;28;20291;-84
2022/10/17 07:58:32;;;;;;;;;;;;;;;31.79;21.16;102509.16;5059828;28;19917;-86
2022/10/17 08:01:01;;;;;;;;;;;;;;;32.69;20.40;102515.16;5035312;28;19982;-87
2022/10/17 08:03:26;;;;;;;;;;;;;;;32.68;19.96;102509.84;5041509;28;19967;-86
2022/10/17 08:05:56;;;;;;;;;;;;;;;32.13;20.16;102509.88;5018084;28;19963;-87
2022/10/17 08:08:22;;;;;;;;;;;;;;;32.28;20.24;102511.13;5033886;28;19924;-87
2022/10/17 08:10:47;;;;;;;;;;;;;;;32.17;20.38;102515.72;5044655;28;19916;-86
2022/10/17 08:13:14;;;;;;;;;;;;;;;31.58;21.00;102510.84;5050086;28;19924;-86
2022/10/17 08:15:39;;;;;;;;;;;;;;;30.25;22.56;102525.28;5033289;28;19921;-86
2022/10/17 08:18:05;;;;;;;;;;;;;;;29.88;22.72;102517.38;5047024;28;19978;-87
2022/10/17 08:20:31;;;;;;;;;;;;;;;30.39;22.60;102518.41;5058144;28;19917;-84
2022/10/17 08:22:56;;;;;;;;;;;;;;;31.26;21.66;102521.78;5069468;28;19917;-86
2022/10/17 08:25:21;;;;;;;;;;;;;;;31.38;21.53;102507.78;5051865;28;20007;-87
2022/10/17 08:27:47;;;;;;;;;;;;;;;32.01;20.95;102511.97;5060639;28;20443;-85
2022/10/17 08:30:12;;;;;;;;;;;;;;;33.14;19.77;102513.00;5050015;28;19924;-85
2022/10/17 08:32:38;;;;;;;;;;;;;;;31.97;20.42;102521.94;5063570;28;20015;-86
2022/10/17 08:35:04;;;;;;;;;;;;;;;29.83;23.21;102514.53;5064292;28;19936;-86
2022/10/17 08:37:31;;;;;;;;;;;;;;;30.09;23.32;102513.94;5059549;28;19920;-85
2022/10/17 08:39:56;;;;;;;;;;;;;;;29.17;24.54;102523.03;5031602;28;19925;-86
2022/10/17 08:42:22;;;;;;;;;;;;;;;28.98;24.64;102525.00;5046950;28;19920;-86
2022/10/17 08:45:06;;;;;;;;;;;;;;;27.93;25.41;102507.03;5055357;28;19958;-84
2022/10/17 08:47:35;;;;;;;;;;;;;;;28.38;25.33;102517.66;5057409;28;19969;-85
2022/10/17 08:50:01;;;;;;;;;;;;;;;27.57;26.33;102522.50;5034091;28;19956;-85
2022/10/17 08:52:38;;;;;;;;;;;;;;;26.99;26.98;102522.84;5037083;28;20325;-84
2022/10/17 08:55:04;;;;;;;;;;;;;;;26.16;28.09;102534.88;5055169;28;20433;-85
2022/10/17 08:57:29;;;;;;;;;;;;;;;26.12;28.26;102517.09;5037198;28;20003;-84
2022/10/17 08:59:55;;;;;;;;;;;;;;;25.42;29.62;102526.00;5056038;28;19929;-84
2022/10/17 09:02:30;;;;;;;;;;;;;;;25.48;29.56;102525.13;5036390;28;19921;-86
2022/10/17 09:05:09;;;;;;;;;;;;;;;24.58;30.78;102527.50;5061900;28;20441;-85
2022/10/17 09:07:53;;;;;;;;;;;;;;;24.70;31.15;102524.97;5055641;28;19924;-86
2022/10/17 09:10:24;;;;;;;;;;;;;;;24.10;31.91;102535.78;5053796;28;19923;-84
2022/10/17 09:13:08;;;;;;;;;;;;;;;24.08;32.29;102537.88;5066145;28;19927;-83
2022/10/17 09:15:33;;;;;;;;;;;;;;;23.90;32.64;102529.34;5048194;28;19956;-84
2022/10/17 09:18:07;;;;;;;;;;;;;;;23.40;33.56;102534.97;5055476;28;19979;-85
2022/10/17 09:20:35;;;;;;;;;;;;;;;23.19;33.61;102530.41;5053223;28;20027;-86
2022/10/17 09:23:05;;;;;;;;;;;;;;;23.99;32.73;102531.72;5047559;28;19999;-85
2022/10/17 09:25:32;;;;;;;;;;;;;;;23.93;32.82;102528.97;5053224;28;20368;-84
2022/10/17 09:28:03;;;;;;;;;;;;;;;23.54;33.10;102535.91;5044968;28;19971;-85
2022/10/17 09:30:35;;;;;;;;;;;;;;;23.93;32.81;102534.47;5052304;28;20034;-84
2022/10/17 09:33:11;;;;;;;;;;;;;;;24.87;31.26;102530.91;5067583;28;19921;-85
2022/10/17 09:35:40;;;;;;;;;;;;;;;24.84;31.03;102531.28;5056425;28;19959;-84
2022/10/17 09:38:07;;;;;;;;;;;;;;;24.16;31.82;102523.09;5063044;28;19920;-86
2022/10/17 09:40:33;;;;;;;;;;;;;;;23.60;32.19;102526.88;5035348;28;19917;-83
2022/10/17 09:42:59;;;;;;;;;;;;;;;23.22;33.13;102521.75;5067932;28;19989;-84
2022/10/17 09:45:25;;;;;;;;;;;;;;;23.10;33.46;102524.19;5048386;28;19917;-84
2022/10/17 09:47:51;;;;;;;;;;;;;;;22.65;34.44;102525.47;5024354;28;19916;-85
2022/10/17 09:50:19;;;;;;;;;;;;;;;22.45;34.71;102522.53;5053754;28;20285;-84
2022/10/17 09:52:46;;;;;;;;;;;;;;;22.39;34.94;102515.94;5058685;28;19987;-84
2022/10/17 09:55:21;;;;;;;;;;;;;;;22.34;35.18;102518.41;5042657;28;19920;-83
2022/10/17 09:57:54;;;;;;;;;;;;;;;21.95;35.82;102525.09;5059590;28;20007;-84
2022/10/17 10:00:48;;;;;;;;;;;;;;;22.09;35.71;102521.47;5055393;28;19967;-85
2022/10/17 10:03:14;;;;;;;;;;;;;;;22.80;34.64;102520.75;5052719;28;19988;-85
2022/10/17 10:05:39;;;;;;;;;;;;;;;23.24;33.92;102511.44;5066041;28;20019;-85
2022/10/17 10:08:05;;;;;;;;;;;;;;;23.17;34.13;102516.03;5064008;28;19917;-86
2022/10/17 10:10:31;;;;;;;;;;;;;;;22.60;34.53;102511.53;5050173;28;19938;-84
2022/10/17 10:13:03;;;;;;;;;;;;;;;22.73;34.62;102515.22;5065742;28;19920;-85
2022/10/17 10:15:34;;;;;;;;;;;;;;;23.40;33.56;102513.03;5040815;28;19917;-84
2022/10/17 10:18:00;;;;;;;;;;;;;;;23.01;33.69;102519.91;5059654;28;19923;-84
2022/10/17 10:20:35;;;;;;;;;;;;;;;25.32;30.27;102509.09;5034269;28;20415;-85
2022/10/17 10:23:04;;;;;;;;;;;;;;;26.65;27.73;102500.22;5055421;28;20405;-85
2022/10/17 10:25:30;;;;;;;;;;;;;;;25.27;29.58;102501.47;5056213;28;20039;-85
2022/10/17 10:27:56;;;;;;;;;;;;;;;25.01;29.96;102504.22;5042821;28;20432;-86
2022/10/17 10:30:26;;;;;;;;;;;;;;;24.50;30.83;102507.59;5034657;28;19983;-87
2022/10/17 10:32:51;;;;;;;;;;;;;;;25.12;29.36;102499.97;5039718;28;19916;-84
2022/10/17 10:35:19;;;;;;;;;;;;;;;24.67;29.93;102499.78;5039686;28;19917;-84
2022/10/17 10:37:48;;;;;;;;;;;;;;;24.33;30.70;102504.38;5054012;28;20003;-84
2022/10/17 10:40:14;;;;;;;;;;;;;;;24.19;30.74;102489.75;5057541;28;19917;-85
2022/10/17 10:42:40;;;;;;;;;;;;;;;24.06;31.24;102493.28;5063325;28;19920;-84
2022/10/17 10:45:19;;;;;;;;;;;;;;;23.63;32.28;102490.78;5033495;28;19936;-85
2022/10/17 10:47:51;;;;;;;;;;;;;;;23.37;32.56;102492.31;5042521;28;20618;-84
2022/10/17 10:50:26;;;;;;;;;;;;;;;23.44;32.04;102491.53;5053306;28;19916;-86
2022/10/17 10:52:55;;;;;;;;;;;;;;;24.63;30.17;102493.84;5062063;28;19917;-84
2022/10/17 10:55:29;;;;;;;;;;;;;;;24.05;31.28;102488.84;5064563;28;19921;-84
2022/10/17 10:57:59;;;;;;;;;;;;;;;23.49;32.68;102481.63;5041198;28;19928;-83
2022/10/17 11:00:26;;;;;;;;;;;;;;;23.33;33.75;102493.75;5052578;28;20000;-84
2022/10/17 11:03:03;;;;;;;;;;;;;;;23.93;32.55;102476.78;5059318;28;19939;-86
2022/10/17 11:05:46;;;;;;;;;;;;;;;24.94;30.74;102478.63;5062828;28;20043;-83
2022/10/17 11:08:38;;;;;;;;;;;;;;;27.56;27.25;102468.34;5061315;28;19920;-85
2022/10/17 11:11:25;;;;;;;;;;;;;;;27.40;28.17;102473.66;5045950;28;19921;-83
2022/10/17 11:13:57;;;;;;;;;;;;;;;26.60;29.48;102474.38;5061095;28;19920;-85
2022/10/17 11:16:31;;;;;;;;;;;;;;;26.62;29.35;102475.00;5040031;28;19926;-85
2022/10/17 11:19:15;;;;;;;;;;;;;;;28.61;26.81;102480.94;5024967;28;20014;-85
2022/10/17 11:21:47;;;;;;;;;;;;;;;29.41;25.53;102468.44;5038353;28;19931;-86
2022/10/17 11:24:15;;;;;;;;;;;;;;;30.14;24.35;102465.19;5065695;28;19924;-85
2022/10/17 11:26:45;;;;;;;;;;;;;;;31.36;22.84;102471.91;5055827;28;19929;-87
2022/10/17 11:29:10;;;;;;;;;;;;;;;30.27;24.27;102470.44;5055044;28;19917;-86
2022/10/17 11:31:38;;;;;;;;;;;;;;;28.92;25.67;102467.84;5037005;28;19921;-85
2022/10/17 11:34:05;;;;;;;;;;;;;;;29.00;25.64;102456.41;5055472;28;19928;-84
2022/10/17 11:36:33;;;;;;;;;;;;;;;28.68;25.57;102457.84;5037011;28;19920;-86
2022/10/17 11:39:00;;;;;;;;;;;;;;;29.13;24.52;102466.44;5039091;28;19913;-84
2022/10/17 11:41:41;;;;;;;;;;;;;;;28.73;25.27;102457.94;5029622;28;19961;-84
2022/10/17 11:44:18;;;;;;;;;;;;;;;29.24;24.82;102457.28;5056900;28;19917;-85
2022/10/17 11:46:43;;;;;;;;;;;;;;;28.71;25.66;102457.38;5055205;28;19937;-85
2022/10/17 11:49:14;;;;;;;;;;;;;;;27.63;27.00;102454.47;5032590;28;19974;-85
2022/10/17 11:52:01;;;;;;;;;;;;;;;26.01;29.02;102465.41;5034954;28;20293;-83
2022/10/17 11:54:37;;;;;;;;;;;;;;;25.37;30.17;102458.88;5050443;28;20359;-82
2022/10/17 11:57:10;;;;;;;;;;;;;;;25.27;30.90;102442.81;5037789;28;20004;-85
2022/10/17 11:59:44;;;;;;;;;;;;;;;25.19;30.93;102457.66;5048631;28;19917;-85
2022/10/17 12:02:15;;;;;;;;;;;;;;;24.97;31.25;102458.94;5050667;28;20357;-85
2022/10/17 12:04:57;;;;;;;;;;;;;;;24.55;32.42;102456.41;5021652;28;19946;-85
2022/10/17 12:07:33;;;;;;;;;;;;;;;24.37;32.47;102458.88;5058290;28;19917;-86
2022/10/17 12:10:25;;;;;;;;;;;;;;;24.06;32.96;102457.56;5048291;28;19921;-85
2022/10/17 12:12:50;;;;;;;;;;;;;;;23.91;33.44;102460.50;5031924;28;20019;-85
2022/10/17 12:15:18;;;;;;;;;;;;;;;23.91;33.45;102459.66;5049545;28;20014;-86
2022/10/17 12:17:44;;;;;;;;;;;;;;;23.78;33.03;102457.69;5059993;28;19917;-84
2022/10/17 12:20:19;;;;;;;;;;;;;;;23.58;33.61;102465.84;5050742;28;19925;-83
2022/10/17 12:22:50;;;;;;;;;;;;;;;23.53;34.33;102457.34;5053535;28;19932;-83
2022/10/17 12:25:20;;;;;;;;;;;;;;;23.62;34.00;102456.09;5048389;28;19917;-84
2022/10/17 12:27:46;;;;;;;;;;;;;;;23.56;34.52;102467.94;5058914;28;19921;-84
2022/10/17 12:30:12;;;;;;;;;;;;;;;23.59;34.68;102464.75;5047285;28;19921;-83
2022/10/17 12:32:46;;;;;;;;;;;;;;;23.52;34.31;102466.63;5054995;28;20293;-83
2022/10/17 12:35:13;;;;;;;;;;;;;;;23.60;34.53;102463.72;5047436;28;19921;-84
2022/10/17 12:37:41;;;;;;;;;;;;;;;23.39;34.91;102462.78;5053268;28;19949;-86
2022/10/17 12:40:25;;;;;;;;;;;;;;;23.43;34.26;102470.59;5050964;28;19921;-84
2022/10/17 12:42:50;;;;;;;;;;;;;;;23.15;35.09;102480.56;5058961;28;19993;-84